createdAt,value
2022-08-08T00:00:54.519Z,18.71
2022-08-08T00:03:28.142Z,18.64
2022-08-08T00:06:33.855Z,18.62
2022-08-08T00:09:27.611Z,18.66
2022-08-08T00:12:07.987Z,18.70
2022-08-08T00:15:08.048Z,18.59
2022-08-08T00:18:02.338Z,18.47
2022-08-08T00:20:50.550Z,18.41
2022-08-08T00:23:55.349Z,18.37
2022-08-08T00:26:34.302Z,18.32
2022-08-08T00:29:17.389Z,18.31
2022-08-08T00:32:20.645Z,18.25
2022-08-08T00:35:18.851Z,18.21
2022-08-08T00:38:02.986Z,18.13
2022-08-08T00:41:10.274Z,18.15
2022-08-08T00:43:45.995Z,18.05
2022-08-08T00:46:16.378Z,18.08
2022-08-08T00:49:01.884Z,18.07
2022-08-08T00:52:23.299Z,18.04
2022-08-08T00:55:16.711Z,17.90
2022-08-08T00:58:30.625Z,17.80
2022-08-08T01:01:37.436Z,17.78
2022-08-08T01:04:30.555Z,17.66
2022-08-08T01:07:15.731Z,17.58
2022-08-08T01:10:21.221Z,17.50
2022-08-08T01:13:14.963Z,17.46
2022-08-08T01:15:59.919Z,17.41
2022-08-08T01:18:54.159Z,17.49
2022-08-08T01:22:13.537Z,17.51
2022-08-08T01:24:54.152Z,17.38
2022-08-08T01:28:00.283Z,17.40
2022-08-08T01:30:59.639Z,17.26
2022-08-08T01:33:54.210Z,17.16
2022-08-08T01:36:40.483Z,17.14
2022-08-08T01:39:34.835Z,17.12
2022-08-08T01:42:15.623Z,17.12
2022-08-08T01:44:55.265Z,17.09
2022-08-08T01:48:16.368Z,17.02
2022-08-08T01:50:48.792Z,16.90
2022-08-08T01:54:12.644Z,16.85
2022-08-08T01:56:47.033Z,16.79
2022-08-08T02:00:01.998Z,16.79
2022-08-08T02:02:49.614Z,16.69
2022-08-08T02:05:23.441Z,16.67
2022-08-08T02:07:53.376Z,16.64
2022-08-08T02:10:29.357Z,16.67
2022-08-08T02:13:52.553Z,16.58
2022-08-08T02:16:35.931Z,16.43
2022-08-08T02:19:41.727Z,16.36
2022-08-08T02:22:33.109Z,16.46
2022-08-08T02:25:20.113Z,16.48
2022-08-08T02:28:07.918Z,16.40
2022-08-08T02:30:50.059Z,16.34
2022-08-08T02:34:09.159Z,16.27
2022-08-08T02:36:51.212Z,16.20
2022-08-08T02:39:42.232Z,16.20
2022-08-08T02:42:47.775Z,16.15
2022-08-08T02:45:54.390Z,16.14
2022-08-08T02:48:56.970Z,16.08
2022-08-08T02:51:30.082Z,16.10
2022-08-08T02:54:19.991Z,16.02
2022-08-08T02:56:59.970Z,16.05
2022-08-08T02:59:57.646Z,16.02
2022-08-08T03:02:50.569Z,15.97
2022-08-08T03:05:17.326Z,15.90
2022-08-08T03:07:58.272Z,15.92
2022-08-08T03:10:53.439Z,15.89
2022-08-08T03:14:15.790Z,15.84
2022-08-08T03:16:35.277Z,15.86
2022-08-08T03:19:12.266Z,15.89
2022-08-08T03:21:54.665Z,15.86
2022-08-08T03:24:25.704Z,15.81
2022-08-08T03:26:58.793Z,15.77
2022-08-08T03:29:55.400Z,15.73
2022-08-08T03:32:41.517Z,15.73
2022-08-08T03:35:10.113Z,15.78
2022-08-08T03:38:54.009Z,15.82
2022-08-08T03:40:30.413Z,15.77
2022-08-08T03:43:16.839Z,15.70
2022-08-08T03:46:05.640Z,15.63
2022-08-08T03:49:10.116Z,15.60
2022-08-08T03:51:40.002Z,15.61
2022-08-08T03:54:06.979Z,15.62
2022-08-08T03:56:35.688Z,15.63
2022-08-08T03:59:02.577Z,15.61
2022-08-08T04:02:33.366Z,15.57
2022-08-08T04:04:30.925Z,15.53
2022-08-08T04:07:01.181Z,15.53
2022-08-08T04:09:57.485Z,15.52
2022-08-08T04:12:15.944Z,15.48
2022-08-08T04:14:45.359Z,15.45
2022-08-08T04:17:22.789Z,15.40
2022-08-08T04:19:59.404Z,15.34
2022-08-08T04:22:30.497Z,15.36
2022-08-08T04:24:57.387Z,15.35
2022-08-08T04:28:01.916Z,15.32
2022-08-08T04:30:19.011Z,15.24
2022-08-08T04:32:48.132Z,15.23
2022-08-08T04:35:20.368Z,15.25
2022-08-08T04:37:50.944Z,15.22
2022-08-08T04:40:18.966Z,15.23
2022-08-08T04:42:57.394Z,15.21
2022-08-08T04:45:27.382Z,15.20
2022-08-08T04:47:57.241Z,15.17
2022-08-08T04:50:32.613Z,15.15
2022-08-08T04:53:05.192Z,15.19
2022-08-08T04:55:47.694Z,15.19
2022-08-08T04:58:22.543Z,15.19
2022-08-08T05:00:49.924Z,15.17
2022-08-08T05:03:18.716Z,15.18
2022-08-08T05:06:12.953Z,15.27
2022-08-08T05:08:46.423Z,15.25
2022-08-08T05:11:24.700Z,15.13
2022-08-08T05:13:54.843Z,15.01
2022-08-08T05:16:49.331Z,15.04
2022-08-08T05:20:05.117Z,15.05
2022-08-08T05:22:01.794Z,14.98
2022-08-08T05:24:32.462Z,15.02
2022-08-08T05:26:59.248Z,15.01
2022-08-08T05:29:29.307Z,14.97
2022-08-08T05:32:03.110Z,14.99
2022-08-08T05:34:53.460Z,14.95
2022-08-08T05:37:49.129Z,14.92
2022-08-08T05:40:16.960Z,14.95
2022-08-08T05:42:51.956Z,14.96
2022-08-08T05:45:25.475Z,14.96
2022-08-08T05:48:08.353Z,14.98
2022-08-08T05:50:36.530Z,15.03
2022-08-08T05:53:53.918Z,15.02
2022-08-08T05:56:09.676Z,15.06
2022-08-08T05:58:56.745Z,15.05
2022-08-08T06:01:56.358Z,15.05
2022-08-08T06:04:22.654Z,15.05
2022-08-08T06:06:52.983Z,15.07
2022-08-08T06:09:58.164Z,15.11
2022-08-08T06:12:14.455Z,15.13
2022-08-08T06:14:47.681Z,15.16
2022-08-08T06:17:19.421Z,15.19
2022-08-08T06:19:50.989Z,15.19
2022-08-08T06:22:33.381Z,15.17
2022-08-08T06:25:02.601Z,15.15
2022-08-08T06:28:06.005Z,15.17
2022-08-08T06:30:35.027Z,15.22
2022-08-08T06:33:09.296Z,15.27
2022-08-08T06:36:08.417Z,15.28
2022-08-08T06:38:28.954Z,15.28
2022-08-08T06:41:04.916Z,15.31
2022-08-08T06:43:35.916Z,15.37
2022-08-08T06:46:08.899Z,15.43
2022-08-08T06:48:39.361Z,15.45
2022-08-08T06:51:11.179Z,15.50
2022-08-08T06:53:39.691Z,15.57
2022-08-08T06:56:08.846Z,15.58
2022-08-08T06:58:36.986Z,15.63
2022-08-08T07:01:11.602Z,15.65
2022-08-08T07:04:35.993Z,15.62
2022-08-08T07:06:56.853Z,15.69
2022-08-08T07:09:41.738Z,15.82
2022-08-08T07:12:25.575Z,15.90
2022-08-08T07:15:06.707Z,15.97
2022-08-08T07:18:34.537Z,16.01
2022-08-08T07:20:51.412Z,16.04
2022-08-08T07:23:57.404Z,16.15
2022-08-08T07:26:35.735Z,16.25
2022-08-08T07:29:05.738Z,16.32
2022-08-08T07:31:36.029Z,16.34
2022-08-08T07:34:09.217Z,16.37
2022-08-08T07:36:48.258Z,16.49
2022-08-08T07:39:29.385Z,16.64
2022-08-08T07:42:05.094Z,16.79
2022-08-08T07:44:40.382Z,16.90
2022-08-08T07:47:08.761Z,17.03
2022-08-08T07:49:40.115Z,17.12
2022-08-08T07:52:13.472Z,17.24
2022-08-08T07:55:05.420Z,17.41
2022-08-08T07:57:50.780Z,17.58
2022-08-08T08:00:22.095Z,17.71
2022-08-08T08:03:09.733Z,17.90
2022-08-08T08:05:50.900Z,18.11
2022-08-08T08:08:20.547Z,18.33
2022-08-08T08:10:52.315Z,18.62
2022-08-08T08:13:42.557Z,19.00
2022-08-08T08:16:28.488Z,19.48
2022-08-08T08:19:01.690Z,19.88
2022-08-08T08:21:57.885Z,20.47
2022-08-08T08:24:30.722Z,21.50
2022-08-08T08:26:59.449Z,22.36
2022-08-08T08:29:28.536Z,23.28
2022-08-08T08:31:57.731Z,24.12
2022-08-08T08:34:32.542Z,24.89
2022-08-08T08:37:07.679Z,25.48
2022-08-08T08:40:00.232Z,26.27
2022-08-08T08:42:29.169Z,26.96
2022-08-08T08:45:10.157Z,27.63
2022-08-08T08:47:54.185Z,28.15
2022-08-08T08:50:33.744Z,28.47
2022-08-08T08:53:27.855Z,28.69
2022-08-08T08:56:01.182Z,28.95
2022-08-08T08:58:43.035Z,29.20
2022-08-08T09:01:23.905Z,29.50
2022-08-08T09:03:51.649Z,29.65
2022-08-08T09:06:28.723Z,29.80
2022-08-08T09:09:25.990Z,29.78
2022-08-08T09:12:07.718Z,29.88
2022-08-08T09:14:35.618Z,30.15
2022-08-08T09:17:15.827Z,30.39
2022-08-08T09:21:56.005Z,30.50
2022-08-08T09:22:34.580Z,30.56
2022-08-08T09:25:02.570Z,30.76
2022-08-08T09:27:56.337Z,30.81
2022-08-08T09:30:19.954Z,30.83
2022-08-08T09:33:54.070Z,30.96
2022-08-08T09:35:49.078Z,30.97
2022-08-08T09:38:53.026Z,30.96
2022-08-08T09:42:15.153Z,30.86
2022-08-08T09:44:42.013Z,30.96
2022-08-08T09:48:02.323Z,30.92
2022-08-08T09:50:04.709Z,30.00
2022-08-08T09:52:59.091Z,30.04
2022-08-08T09:55:31.362Z,30.45
2022-08-08T09:58:20.529Z,30.79
2022-08-08T10:00:57.391Z,31.04
2022-08-08T10:03:27.946Z,31.14
2022-08-08T10:05:58.597Z,31.28
2022-08-08T10:08:26.264Z,31.08
2022-08-08T10:10:58.432Z,30.73
2022-08-08T10:13:35.921Z,30.76
2022-08-08T10:16:05.951Z,30.73
2022-08-08T10:18:35.731Z,30.76
2022-08-08T10:21:22.655Z,30.76
2022-08-08T10:23:57.964Z,30.73
2022-08-08T10:26:52.026Z,30.68
2022-08-08T10:29:56.743Z,30.73
2022-08-08T10:32:37.335Z,30.74
2022-08-08T10:36:06.240Z,30.74
2022-08-08T10:38:05.323Z,30.75
2022-08-08T10:40:32.688Z,30.52
2022-08-08T10:43:05.045Z,30.33
2022-08-08T10:45:56.571Z,29.98
2022-08-08T10:48:34.998Z,29.62
2022-08-08T10:51:13.312Z,29.25
2022-08-08T10:53:57.528Z,28.92
2022-08-08T10:56:35.054Z,28.74
2022-08-08T10:59:10.242Z,28.47
2022-08-08T11:01:46.395Z,28.15
2022-08-08T11:04:16.618Z,27.72
2022-08-08T11:06:49.356Z,27.42
2022-08-08T11:09:19.811Z,27.10
2022-08-08T11:12:04.838Z,26.70
2022-08-08T11:14:49.583Z,26.18
2022-08-08T11:18:00.050Z,25.95
2022-08-08T11:20:10.943Z,25.85
2022-08-08T11:22:41.213Z,25.81
2022-08-08T11:25:14.398Z,25.69
2022-08-08T11:27:47.028Z,25.48
2022-08-08T11:30:20.036Z,25.35
2022-08-08T11:32:56.268Z,25.29
2022-08-08T11:35:38.260Z,25.19
2022-08-08T11:38:38.834Z,24.97
2022-08-08T11:40:56.931Z,24.85
2022-08-08T11:43:38.991Z,24.88
2022-08-08T11:46:18.210Z,24.80
2022-08-08T11:48:47.387Z,24.69
2022-08-08T11:51:38.707Z,24.63
2022-08-08T11:54:32.402Z,24.51
2022-08-08T11:56:57.759Z,24.68
2022-08-08T11:59:58.444Z,24.83
2022-08-08T12:02:32.387Z,24.72
2022-08-08T12:05:07.195Z,24.83
2022-08-08T12:07:56.771Z,24.91
2022-08-08T12:10:30.277Z,25.03
2022-08-08T12:13:06.965Z,25.07
2022-08-08T12:15:42.783Z,25.03
2022-08-08T12:18:25.449Z,25.14
2022-08-08T12:20:59.541Z,25.04
2022-08-08T12:23:43.288Z,24.87
2022-08-08T12:26:28.580Z,24.94
2022-08-08T12:29:40.512Z,25.18
2022-08-08T12:32:19.801Z,25.14
2022-08-08T12:35:01.451Z,25.20
2022-08-08T12:37:40.435Z,25.34
2022-08-08T12:40:22.633Z,25.36
2022-08-08T12:42:51.861Z,25.24
2022-08-08T12:45:54.747Z,25.17
2022-08-08T12:48:37.363Z,25.16
2022-08-08T12:51:10.891Z,25.13
2022-08-08T12:53:59.272Z,25.12
2022-08-08T12:56:37.823Z,25.10
2022-08-08T12:59:36.604Z,25.15
2022-08-08T13:02:22.670Z,25.28
2022-08-08T13:05:00.223Z,25.35
2022-08-08T13:08:02.136Z,25.50
2022-08-08T13:10:33.688Z,25.59
2022-08-08T13:13:05.920Z,25.63
2022-08-08T13:15:35.624Z,25.62
2022-08-08T13:18:10.651Z,25.59
2022-08-08T13:20:49.024Z,25.51
2022-08-08T13:23:36.496Z,25.59
2022-08-08T13:26:14.290Z,25.78
2022-08-08T13:28:42.829Z,25.84
2022-08-08T13:31:16.573Z,25.85
2022-08-08T13:33:47.387Z,25.88
2022-08-08T13:36:25.647Z,25.94
2022-08-08T13:38:54.261Z,25.96
2022-08-08T13:41:22.313Z,26.03
2022-08-08T13:43:49.901Z,25.97
2022-08-08T13:46:27.135Z,26.01
2022-08-08T13:49:12.140Z,26.06
2022-08-08T13:51:56.359Z,26.12
2022-08-08T13:54:29.537Z,26.22
2022-08-08T13:57:08.769Z,26.25
2022-08-08T13:59:49.330Z,26.07
2022-08-08T14:02:20.348Z,26.15
2022-08-08T14:04:54.576Z,26.24
2022-08-08T14:07:30.511Z,26.22
2022-08-08T14:10:11.920Z,26.02
2022-08-08T14:12:43.851Z,26.07
2022-08-08T14:15:31.505Z,25.99
2022-08-08T14:18:35.973Z,25.98
2022-08-08T14:21:08.238Z,25.81
2022-08-08T14:24:04.269Z,26.02
2022-08-08T14:26:33.109Z,26.01
2022-08-08T14:29:01.485Z,25.91
2022-08-08T14:32:05.852Z,26.07
2022-08-08T14:34:23.293Z,26.26
2022-08-08T14:36:54.858Z,26.24
2022-08-08T14:39:24.997Z,26.34
2022-08-08T14:42:09.461Z,26.31
2022-08-08T14:44:39.509Z,26.36
2022-08-08T14:47:20.869Z,26.45
2022-08-08T14:50:02.467Z,26.54
2022-08-08T14:52:46.772Z,26.49
2022-08-08T14:55:14.078Z,26.56
2022-08-08T14:58:02.461Z,26.77
2022-08-08T15:00:34.843Z,26.90
2022-08-08T15:03:14.512Z,26.91
2022-08-08T15:05:54.296Z,26.86
2022-08-08T15:08:35.689Z,26.94
2022-08-08T15:11:11.564Z,26.89
2022-08-08T15:14:01.819Z,26.86
2022-08-08T15:16:27.866Z,26.91
2022-08-08T15:18:55.068Z,27.04
2022-08-08T15:21:22.161Z,27.11
2022-08-08T15:23:50.851Z,27.05
2022-08-08T15:26:25.501Z,27.02
2022-08-08T15:28:54.192Z,27.06
2022-08-08T15:31:49.027Z,27.24
2022-08-08T15:34:18.761Z,27.30
2022-08-08T15:36:57.194Z,27.32
2022-08-08T15:39:23.931Z,27.51
2022-08-08T15:41:52.735Z,27.52
2022-08-08T15:44:20.930Z,27.49
2022-08-08T15:46:50.663Z,27.40
2022-08-08T15:49:20.550Z,27.50
2022-08-08T15:51:49.885Z,27.48
2022-08-08T15:54:37.263Z,27.54
2022-08-08T15:57:04.344Z,27.41
2022-08-08T16:00:10.888Z,27.35
2022-08-08T16:02:30.394Z,27.34
2022-08-08T16:04:58.984Z,27.31
2022-08-08T16:07:39.117Z,27.24
2022-08-08T16:13:21.333Z,27.15
2022-08-08T16:13:33.530Z,27.17
2022-08-08T16:15:58.198Z,27.31
2022-08-08T16:18:28.042Z,27.47
2022-08-08T16:21:00.415Z,27.47
2022-08-08T16:23:32.478Z,27.48
2022-08-08T16:26:04.079Z,27.57
2022-08-08T16:28:34.997Z,27.53
2022-08-08T16:31:04.656Z,27.61
2022-08-08T16:33:38.182Z,27.73
2022-08-08T16:36:08.917Z,27.71
2022-08-08T16:38:40.565Z,27.58
2022-08-08T16:41:20.593Z,27.53
2022-08-08T16:43:51.432Z,27.58
2022-08-08T16:46:36.356Z,27.48
2022-08-08T16:49:07.749Z,27.32
2022-08-08T16:55:03.429Z,27.36
2022-08-08T16:55:06.175Z,27.32
2022-08-08T16:57:43.512Z,27.32
2022-08-08T16:59:58.910Z,27.18
2022-08-08T17:02:32.945Z,27.14
2022-08-08T17:05:06.426Z,27.23
2022-08-08T17:07:33.155Z,27.23
2022-08-08T17:10:05.128Z,27.23
2022-08-08T17:12:34.718Z,27.19
2022-08-08T17:15:17.876Z,27.22
2022-08-08T17:18:03.514Z,27.17
2022-08-08T17:20:39.821Z,27.20
2022-08-08T17:23:17.856Z,27.27
2022-08-08T17:25:56.144Z,27.33
2022-08-08T17:28:34.452Z,27.25
2022-08-08T17:31:44.768Z,27.26
2022-08-08T17:34:54.367Z,27.31
2022-08-08T17:37:00.930Z,27.32
2022-08-08T17:40:03.244Z,27.27
2022-08-08T17:42:12.499Z,27.20
2022-08-08T17:44:39.800Z,27.13
2022-08-08T17:47:11.044Z,27.06
2022-08-08T17:49:43.381Z,27.04
2022-08-08T17:52:10.479Z,27.06
2022-08-08T17:54:37.560Z,26.93
2022-08-08T17:57:05.941Z,26.82
2022-08-08T17:59:36.483Z,26.63
2022-08-08T18:02:16.355Z,26.40
2022-08-08T18:04:50.412Z,26.36
2022-08-08T18:08:02.356Z,26.39
2022-08-08T18:10:07.329Z,26.14
2022-08-08T18:12:34.195Z,25.95
2022-08-08T18:15:01.778Z,25.89
2022-08-08T18:18:05.472Z,25.70
2022-08-08T18:20:36.977Z,25.49
2022-08-08T18:23:02.053Z,25.32
2022-08-08T18:25:37.482Z,25.23
2022-08-08T18:28:04.820Z,25.00
2022-08-08T18:30:33.092Z,24.83
2022-08-08T18:33:00.228Z,24.57
2022-08-08T18:35:34.107Z,24.25
2022-08-08T18:38:17.466Z,23.96
2022-08-08T18:40:51.070Z,23.63
2022-08-08T18:43:21.006Z,23.37
2022-08-08T18:46:56.559Z,23.24
2022-08-08T18:48:36.464Z,23.18
2022-08-08T18:51:03.192Z,23.07
2022-08-08T18:54:00.565Z,22.86
2022-08-08T18:56:24.999Z,22.77
2022-08-08T18:58:53.629Z,22.74
2022-08-08T19:02:25.541Z,22.68
2022-08-08T19:04:10.651Z,22.50
2022-08-08T19:06:38.017Z,22.40
2022-08-08T19:09:13.233Z,22.30
2022-08-08T19:11:46.569Z,22.25
2022-08-08T19:14:20.765Z,22.25
2022-08-08T19:16:48.257Z,22.21
2022-08-08T19:19:15.911Z,22.20
2022-08-08T19:21:49.455Z,22.14
2022-08-08T19:24:39.186Z,22.05
2022-08-08T19:27:04.738Z,21.95
2022-08-08T19:29:35.810Z,21.86
2022-08-08T19:32:12.689Z,21.82
2022-08-08T19:34:41.771Z,21.72
2022-08-08T19:37:16.369Z,21.55
2022-08-08T19:39:45.714Z,21.42
2022-08-08T19:42:13.560Z,21.36
2022-08-08T19:44:42.897Z,21.22
2022-08-08T19:47:12.912Z,21.14
2022-08-08T19:49:39.596Z,21.08
2022-08-08T19:52:13.348Z,20.91
2022-08-08T19:54:40.390Z,20.89
2022-08-08T19:57:14.507Z,20.84
2022-08-08T19:59:43.975Z,20.76
2022-08-08T20:02:11.831Z,20.72
2022-08-08T20:04:39.030Z,20.73
2022-08-08T20:08:27.947Z,20.70
2022-08-08T20:09:58.501Z,20.66
2022-08-08T20:12:32.731Z,20.55
2022-08-08T20:15:09.781Z,20.51
2022-08-08T20:17:43.299Z,20.45
2022-08-08T20:20:12.744Z,20.39
2022-08-08T20:22:48.654Z,20.43
2022-08-08T20:25:20.468Z,20.40
2022-08-08T20:27:50.495Z,20.37
2022-08-08T20:30:52.822Z,20.33
2022-08-08T20:33:20.011Z,20.26
2022-08-08T20:35:58.369Z,20.19
2022-08-08T20:38:32.686Z,20.12
2022-08-08T20:41:16.948Z,20.04
2022-08-08T20:43:48.149Z,19.99
2022-08-08T20:46:15.750Z,19.98
2022-08-08T20:48:44.045Z,19.88
2022-08-08T20:51:10.994Z,19.84
2022-08-08T20:53:59.324Z,19.86
2022-08-08T20:56:35.781Z,19.81
2022-08-08T20:59:05.909Z,19.75
2022-08-08T21:02:05.672Z,19.75
2022-08-08T21:04:23.285Z,19.72
2022-08-08T21:06:53.383Z,19.71
2022-08-08T21:09:21.494Z,19.76
2022-08-08T21:11:51.394Z,19.79
2022-08-08T21:14:33.376Z,19.83
2022-08-08T21:17:01.481Z,19.79
2022-08-08T21:19:44.062Z,19.75
2022-08-08T21:22:11.653Z,19.69
2022-08-08T21:24:39.590Z,19.73
2022-08-08T21:27:15.242Z,19.69
2022-08-08T21:30:03.926Z,19.65
2022-08-08T21:32:31.562Z,19.60
2022-08-08T21:36:13.911Z,19.54
2022-08-08T21:37:55.011Z,19.48
2022-08-08T21:40:30.983Z,19.39
2022-08-08T21:42:58.586Z,19.31
2022-08-08T21:48:01.494Z,19.27
2022-08-08T21:48:19.991Z,19.20
2022-08-08T21:50:48.315Z,19.14
2022-08-08T21:54:31.087Z,19.10
2022-08-08T21:56:19.421Z,19.05
2022-08-08T21:58:55.295Z,18.96
2022-08-08T22:01:39.264Z,18.89
2022-08-08T22:04:07.501Z,18.78
2022-08-08T22:06:38.113Z,18.74
2022-08-08T22:09:09.022Z,18.72
2022-08-08T22:11:59.309Z,18.73
2022-08-08T22:14:26.954Z,18.63
2022-08-08T22:16:56.287Z,18.60
2022-08-08T22:19:24.010Z,18.58
2022-08-08T22:21:52.835Z,18.54
2022-08-08T22:24:28.385Z,18.52
2022-08-08T22:27:01.435Z,18.48
2022-08-08T22:29:59.321Z,18.52
2022-08-08T22:32:18.753Z,18.66
2022-08-08T22:34:50.697Z,18.75
2022-08-08T22:37:48.939Z,18.75
2022-08-08T22:40:16.463Z,18.73
2022-08-08T22:42:47.400Z,18.71
2022-08-08T22:45:15.699Z,18.62
2022-08-08T22:47:48.758Z,18.53
2022-08-08T22:50:26.006Z,18.44
2022-08-08T22:54:29.150Z,18.39
2022-08-08T22:55:59.389Z,18.35
2022-08-08T22:58:34.695Z,18.32
2022-08-08T23:02:01.153Z,18.28
2022-08-08T23:03:55.904Z,18.24
2022-08-08T23:06:24.992Z,18.21
2022-08-08T23:08:55.945Z,18.17
2022-08-08T23:11:30.856Z,18.16
2022-08-08T23:14:19.085Z,18.11
2022-08-08T23:16:54.892Z,18.08
2022-08-08T23:19:27.463Z,18.07
2022-08-08T23:21:57.859Z,18.07
2022-08-08T23:24:24.520Z,18.06
2022-08-08T23:26:55.407Z,18.01
2022-08-08T23:29:24.795Z,17.97
2022-08-08T23:31:51.871Z,17.97
2022-08-08T23:34:19.495Z,17.95
2022-08-08T23:36:47.928Z,17.94
2022-08-08T23:39:15.615Z,17.92
2022-08-08T23:41:46.752Z,17.89
2022-08-08T23:44:18.638Z,17.86
2022-08-08T23:49:06.766Z,17.84
2022-08-08T23:49:33.794Z,17.84
2022-08-08T23:52:04.666Z,17.82
2022-08-08T23:54:41.892Z,17.77
2022-08-08T23:57:26.639Z,17.80
